createdAt,value
2022-08-07T00:02:36.551Z,100.00
2022-08-07T00:05:28.968Z,100.00
2022-08-07T00:08:16.574Z,100.00
2022-08-07T00:11:07.494Z,100.00
2022-08-07T00:13:57.774Z,100.00
2022-08-07T00:16:46.451Z,100.00
2022-08-07T00:19:59.786Z,100.00
2022-08-07T00:22:42.321Z,100.00
2022-08-07T00:25:41.491Z,100.00
2022-08-07T00:28:33.658Z,100.00
2022-08-07T00:31:21.352Z,100.00
2022-08-07T00:34:08.953Z,100.00
2022-08-07T00:36:56.686Z,100.00
2022-08-07T00:39:45.039Z,100.00
2022-08-07T00:42:33.592Z,100.00
2022-08-07T00:45:23.701Z,100.00
2022-08-07T00:48:11.889Z,100.00
2022-08-07T00:51:00.387Z,100.00
2022-08-07T00:53:50.615Z,100.00
2022-08-07T00:56:42.414Z,100.00
2022-08-07T00:59:35.712Z,100.00
2022-08-07T01:02:28.527Z,100.00
2022-08-07T01:05:19.458Z,100.00
2022-08-07T01:08:08.957Z,100.00
2022-08-07T01:10:56.717Z,100.00
2022-08-07T01:13:56.087Z,100.00
2022-08-07T01:16:47.319Z,100.00
2022-08-07T01:19:38.496Z,100.00
2022-08-07T01:22:29.508Z,100.00
2022-08-07T01:25:40.399Z,100.00
2022-08-07T01:28:24.310Z,100.00
2022-08-07T01:31:15.490Z,100.00
2022-08-07T01:34:08.278Z,100.00
2022-08-07T01:36:57.942Z,100.00
2022-08-07T01:39:47.094Z,100.00
2022-08-07T01:42:40.249Z,100.00
2022-08-07T01:45:43.680Z,100.00
2022-08-07T01:48:34.163Z,100.00
2022-08-07T01:52:00.932Z,100.00
2022-08-07T01:54:36.498Z,100.00
2022-08-07T01:57:28.818Z,100.00
2022-08-07T02:00:17.778Z,100.00
2022-08-07T02:03:15.952Z,100.00
2022-08-07T02:06:31.614Z,100.00
2022-08-07T02:09:33.916Z,100.00
2022-08-07T02:12:32.902Z,100.00
2022-08-07T02:15:25.416Z,100.00
2022-08-07T02:18:15.762Z,100.00
2022-08-07T02:21:08.299Z,100.00
2022-08-07T02:24:04.498Z,100.00
2022-08-07T02:26:52.814Z,100.00
2022-08-07T02:29:43.589Z,100.00
2022-08-07T02:32:39.502Z,100.00
2022-08-07T02:36:29.499Z,100.00
2022-08-07T02:38:57.278Z,100.00
2022-08-07T02:41:47.254Z,100.00
2022-08-07T02:44:42.279Z,100.00
2022-08-07T02:47:45.234Z,100.00
2022-08-07T02:50:42.671Z,100.00
2022-08-07T02:53:38.704Z,100.00
2022-08-07T02:56:31.342Z,100.00
2022-08-07T02:59:24.156Z,100.00
2022-08-07T03:02:15.262Z,100.00
2022-08-07T03:05:04.895Z,100.00
2022-08-07T03:08:07.657Z,100.00
2022-08-07T03:10:58.230Z,100.00
2022-08-07T03:13:49.910Z,100.00
2022-08-07T03:16:38.380Z,100.00
2022-08-07T03:19:28.943Z,100.00
2022-08-07T03:22:18.860Z,100.00
2022-08-07T03:25:06.522Z,100.00
2022-08-07T03:27:59.210Z,100.00
2022-08-07T03:31:17.417Z,100.00
2022-08-07T03:34:07.981Z,100.00
2022-08-07T03:36:57.194Z,100.00
2022-08-07T03:40:13.203Z,100.00
2022-08-07T03:42:55.677Z,100.00
2022-08-07T03:45:47.872Z,100.00
2022-08-07T03:48:45.445Z,100.00
2022-08-07T03:51:47.859Z,100.00
2022-08-07T03:54:55.268Z,100.00
2022-08-07T03:58:34.994Z,100.00
2022-08-07T04:00:58.240Z,100.00
2022-08-07T04:03:53.598Z,100.00
2022-08-07T04:06:43.729Z,100.00
2022-08-07T04:09:45.465Z,100.00
2022-08-07T04:12:38.273Z,100.00
2022-08-07T04:15:25.422Z,100.00
2022-08-07T04:18:58.421Z,100.00
2022-08-07T04:21:21.811Z,100.00
2022-08-07T04:24:30.705Z,100.00
2022-08-07T04:27:35.950Z,100.00
2022-08-07T04:30:39.507Z,100.00
2022-08-07T04:33:36.242Z,100.00
2022-08-07T04:36:26.220Z,100.00
2022-08-07T04:39:13.650Z,100.00
2022-08-07T04:42:05.144Z,100.00
2022-08-07T04:45:02.703Z,100.00
2022-08-07T04:48:10.454Z,100.00
2022-08-07T04:51:16.166Z,100.00
2022-08-07T04:54:32.286Z,100.00
2022-08-07T04:58:15.111Z,100.00
2022-08-07T05:00:59.220Z,100.00
2022-08-07T05:04:24.849Z,100.00
2022-08-07T05:07:30.484Z,100.00
2022-08-07T05:10:37.604Z,100.00
2022-08-07T05:14:56.174Z,100.00
2022-08-07T05:16:52.749Z,100.00
2022-08-07T05:19:47.177Z,100.00
2022-08-07T05:22:36.275Z,100.00
2022-08-07T05:25:36.719Z,100.00
2022-08-07T05:28:36.662Z,100.00
2022-08-07T05:31:38.853Z,100.00
2022-08-07T05:34:28.410Z,100.00
2022-08-07T05:37:25.138Z,100.00
2022-08-07T05:40:18.710Z,100.00
2022-08-07T05:43:10.681Z,100.00
2022-08-07T05:46:01.237Z,100.00
2022-08-07T05:48:59.416Z,100.00
2022-08-07T05:51:47.984Z,100.00
2022-08-07T05:54:53.738Z,100.00
2022-08-07T05:57:44.958Z,100.00
2022-08-07T06:00:35.143Z,100.00
2022-08-07T06:03:24.053Z,100.00
2022-08-07T06:06:12.822Z,100.00
2022-08-07T06:09:06.613Z,100.00
2022-08-07T06:11:55.867Z,100.00
2022-08-07T06:14:49.535Z,100.00
2022-08-07T06:17:38.014Z,100.00
2022-08-07T06:20:49.780Z,100.00
2022-08-07T06:24:37.130Z,100.00
2022-08-07T06:26:42.434Z,100.00
2022-08-07T06:29:30.875Z,100.00
2022-08-07T06:32:18.036Z,100.00
2022-08-07T06:35:17.580Z,100.00
2022-08-07T06:38:06.273Z,100.00
2022-08-07T06:40:59.421Z,100.00
2022-08-07T06:43:59.542Z,100.00
2022-08-07T06:47:00.062Z,99.49
2022-08-07T06:49:58.694Z,99.49
2022-08-07T06:52:53.185Z,99.33
2022-08-07T06:56:00.032Z,98.24
2022-08-07T07:00:13.310Z,96.14
2022-08-07T07:01:58.803Z,93.21
2022-08-07T07:04:54.924Z,95.78
2022-08-07T07:07:59.243Z,93.87
2022-08-07T07:10:56.673Z,88.13
2022-08-07T07:13:57.641Z,86.86
2022-08-07T07:16:53.453Z,82.02
2022-08-07T07:19:57.052Z,81.50
2022-08-07T07:24:08.378Z,79.46
2022-08-07T07:26:32.361Z,82.89
2022-08-07T07:29:56.761Z,83.10
2022-08-07T07:32:25.642Z,80.54
2022-08-07T07:35:14.603Z,79.53
2022-08-07T07:38:04.800Z,79.12
2022-08-07T07:41:02.369Z,78.33
2022-08-07T07:44:16.726Z,77.47
2022-08-07T07:47:14.014Z,75.76
2022-08-07T07:50:34.647Z,73.80
2022-08-07T07:53:13.631Z,73.82
2022-08-07T07:56:12.663Z,73.05
2022-08-07T07:59:06.032Z,70.32
2022-08-07T08:02:01.635Z,68.59
2022-08-07T08:04:53.581Z,69.16
2022-08-07T08:07:59.717Z,68.88
2022-08-07T08:10:49.289Z,65.92
2022-08-07T08:13:54.996Z,67.41
2022-08-07T08:16:50.404Z,65.73
2022-08-07T08:20:18.311Z,64.84
2022-08-07T08:23:08.341Z,63.45
2022-08-07T08:26:18.761Z,64.10
2022-08-07T08:29:09.426Z,63.26
2022-08-07T08:31:58.777Z,61.45
2022-08-07T08:35:06.239Z,61.19
2022-08-07T08:42:09.244Z,58.33
2022-08-07T08:59:08.656Z,57.05
2022-08-07T09:02:24.736Z,55.05
2022-08-07T09:05:55.842Z,54.15
2022-08-07T09:09:09.712Z,52.40
2022-08-07T09:12:31.094Z,49.66
2022-08-07T09:16:22.942Z,48.71
2022-08-07T09:19:53.690Z,46.88
2022-08-07T09:24:33.530Z,47.46
2022-08-07T09:26:28.652Z,46.48
2022-08-07T09:30:04.270Z,47.58
2022-08-07T09:33:05.533Z,46.65
2022-08-07T09:36:22.887Z,45.76
2022-08-07T09:39:55.559Z,44.98
2022-08-07T09:42:58.726Z,45.74
2022-08-07T09:47:42.329Z,46.08
2022-08-07T09:50:01.995Z,45.78
2022-08-07T09:52:59.543Z,45.47
2022-08-07T09:56:42.093Z,44.26
2022-08-07T10:00:00.613Z,44.31
2022-08-07T10:04:05.371Z,44.43
2022-08-07T10:06:49.100Z,43.69
2022-08-07T10:09:59.264Z,43.42
2022-08-07T10:12:53.605Z,43.69
2022-08-07T10:16:10.015Z,43.58
2022-08-07T10:19:31.374Z,42.98
2022-08-07T10:23:02.225Z,41.67
2022-08-07T10:26:17.751Z,43.16
2022-08-07T10:29:51.561Z,41.19
2022-08-07T10:32:59.626Z,41.53
2022-08-07T10:36:05.581Z,41.22
2022-08-07T10:39:41.518Z,41.34
2022-08-07T10:42:54.603Z,39.84
2022-08-07T10:45:58.324Z,40.53
2022-08-07T10:49:15.002Z,39.77
2022-08-07T10:52:33.671Z,39.83
2022-08-07T10:55:37.783Z,40.53
2022-08-07T10:59:00.137Z,39.61
2022-08-07T11:02:04.800Z,40.37
2022-08-07T11:05:14.025Z,39.90
2022-08-07T11:08:11.843Z,41.36
2022-08-07T11:11:06.476Z,39.00
2022-08-07T11:14:43.411Z,40.44
2022-08-07T11:17:43.112Z,39.79
2022-08-07T11:21:14.201Z,40.09
2022-08-07T11:24:12.143Z,40.46
2022-08-07T11:27:17.777Z,39.80
2022-08-07T11:30:18.218Z,39.07
2022-08-07T11:33:53.831Z,38.43
2022-08-07T11:36:31.290Z,38.13
2022-08-07T11:39:59.109Z,37.85
2022-08-07T11:43:18.619Z,40.31
2022-08-07T11:46:57.245Z,36.79
2022-08-07T11:50:31.263Z,37.50
2022-08-07T11:53:27.735Z,35.73
2022-08-07T11:56:32.910Z,37.08
2022-08-07T12:00:11.913Z,37.51
2022-08-07T12:03:44.541Z,37.08
2022-08-07T12:06:37.378Z,39.25
2022-08-07T12:09:54.119Z,38.57
2022-08-07T12:12:49.543Z,36.59
2022-08-07T12:16:05.453Z,36.82
2022-08-07T12:19:21.627Z,35.49
2022-08-07T12:22:37.934Z,35.60
2022-08-07T12:26:03.200Z,35.35
2022-08-07T12:29:06.868Z,37.16
2022-08-07T12:32:04.974Z,37.75
2022-08-07T12:34:56.587Z,40.18
2022-08-07T12:38:11.205Z,40.51
2022-08-07T12:40:57.547Z,39.21
2022-08-07T12:44:02.704Z,38.95
2022-08-07T12:47:30.396Z,39.76
2022-08-07T12:50:39.510Z,39.09
2022-08-07T12:54:03.370Z,40.37
2022-08-07T12:57:09.455Z,40.54
2022-08-07T13:00:02.286Z,42.99
2022-08-07T13:03:22.992Z,42.60
2022-08-07T13:07:00.500Z,42.12
2022-08-07T13:10:37.664Z,41.87
2022-08-07T13:13:49.196Z,44.29
2022-08-07T13:17:02.659Z,40.13
2022-08-07T13:20:01.263Z,38.04
2022-08-07T13:22:55.972Z,40.43
2022-08-07T13:26:00.781Z,41.01
2022-08-07T13:29:13.085Z,39.57
2022-08-07T13:32:31.845Z,40.25
2022-08-07T13:36:00.483Z,37.59
2022-08-07T13:39:49.049Z,39.56
2022-08-07T13:42:41.492Z,38.82
2022-08-07T13:46:21.233Z,39.03
2022-08-07T13:48:51.909Z,38.41
2022-08-07T13:52:22.843Z,38.24
2022-08-07T13:55:00.656Z,37.66
2022-08-07T13:58:01.708Z,36.21
2022-08-07T14:01:50.996Z,38.30
2022-08-07T14:04:56.907Z,38.27
2022-08-07T14:08:00.085Z,38.81
2022-08-07T14:11:01.870Z,37.74
2022-08-07T14:14:08.186Z,36.82
2022-08-07T14:16:59.984Z,39.53
2022-08-07T14:20:42.032Z,39.87
2022-08-07T14:23:31.481Z,36.76
2022-08-07T14:26:56.896Z,37.06
2022-08-07T14:30:10.247Z,37.04
2022-08-07T14:33:00.165Z,35.89
2022-08-07T14:35:47.971Z,37.57
2022-08-07T14:38:36.073Z,37.55
2022-08-07T14:41:33.856Z,41.25
2022-08-07T14:44:40.609Z,42.77
2022-08-07T14:47:33.346Z,45.77
2022-08-07T14:50:24.478Z,44.16
2022-08-07T14:53:13.838Z,42.03
2022-08-07T14:56:13.115Z,44.97
2022-08-07T15:00:04.723Z,43.35
2022-08-07T15:02:32.170Z,45.22
2022-08-07T15:05:23.761Z,45.80
2022-08-07T15:08:14.001Z,47.51
2022-08-07T15:11:14.986Z,47.38
2022-08-07T15:17:17.244Z,46.09
2022-08-07T15:20:31.118Z,46.23
2022-08-07T15:26:44.720Z,41.84
2022-08-07T15:30:10.103Z,41.31
2022-08-07T15:33:03.806Z,39.18
2022-08-07T15:36:01.506Z,38.50
2022-08-07T15:42:45.731Z,37.95
2022-08-07T15:45:25.130Z,39.40
2022-08-07T15:48:37.004Z,44.53
2022-08-07T15:55:02.346Z,42.43
2022-08-07T15:58:00.270Z,42.05
2022-08-07T16:00:50.089Z,38.82
2022-08-07T16:03:55.511Z,37.67
2022-08-07T16:06:55.591Z,38.01
2022-08-07T16:10:27.873Z,35.64
2022-08-07T16:13:58.099Z,34.90
2022-08-07T16:17:03.145Z,34.36
2022-08-07T16:20:33.329Z,36.43
2022-08-07T16:23:55.050Z,34.01
2022-08-07T16:27:18.259Z,34.26
2022-08-07T16:30:30.723Z,34.45
2022-08-07T16:34:01.436Z,32.89
2022-08-07T16:38:02.929Z,33.62
2022-08-07T16:40:28.272Z,31.85
2022-08-07T16:44:02.652Z,31.37
2022-08-07T16:47:49.602Z,35.08
2022-08-07T16:50:48.139Z,32.88
2022-08-07T16:54:12.185Z,32.83
2022-08-07T16:57:06.287Z,33.42
2022-08-07T17:00:12.079Z,34.85
2022-08-07T17:03:17.481Z,36.02
2022-08-07T17:06:31.049Z,39.70
2022-08-07T17:10:06.913Z,40.33
2022-08-07T17:13:23.359Z,39.73
2022-08-07T17:16:11.157Z,38.61
2022-08-07T17:19:03.961Z,38.93
2022-08-07T17:21:58.998Z,41.04
2022-08-07T17:24:58.154Z,42.62
2022-08-07T17:28:00.659Z,39.62
2022-08-07T17:31:16.703Z,40.14
2022-08-07T17:34:33.266Z,39.72
2022-08-07T17:38:05.788Z,39.91
2022-08-07T17:40:58.954Z,40.12
2022-08-07T17:44:34.074Z,44.33
2022-08-07T17:47:41.747Z,43.25
2022-08-07T17:50:49.111Z,44.83
2022-08-07T17:54:00.208Z,43.76
2022-08-07T17:57:01.470Z,43.93
2022-08-07T17:59:54.986Z,44.40
2022-08-07T18:03:09.134Z,47.20
2022-08-07T18:06:06.674Z,48.63
2022-08-07T18:09:05.834Z,49.39
2022-08-07T18:12:27.923Z,48.40
2022-08-07T18:15:51.805Z,47.37
2022-08-07T18:21:10.311Z,47.91
2022-08-07T18:22:11.483Z,50.82
2022-08-07T18:25:19.260Z,51.54
2022-08-07T18:28:58.160Z,52.66
2022-08-07T18:31:51.433Z,53.10
2022-08-07T18:35:03.055Z,52.94
2022-08-07T18:38:58.643Z,53.40
2022-08-07T18:41:24.505Z,53.84
2022-08-07T18:45:43.304Z,55.35
2022-08-07T18:49:23.698Z,55.19
2022-08-07T18:52:34.343Z,55.32
2022-08-07T18:55:42.437Z,55.74
2022-08-07T18:58:51.655Z,56.33
2022-08-07T19:02:34.486Z,56.32
2022-08-07T19:06:01.910Z,56.51
2022-08-07T19:08:58.590Z,57.19
2022-08-07T19:12:11.390Z,57.18
2022-08-07T19:16:03.792Z,57.57
2022-08-07T19:18:35.905Z,57.66
2022-08-07T19:21:56.876Z,58.50
2022-08-07T19:24:53.042Z,58.69
2022-08-07T19:30:54.654Z,58.88
2022-08-07T19:31:41.480Z,59.50
2022-08-07T19:34:03.191Z,59.83
2022-08-07T19:36:53.523Z,60.37
2022-08-07T19:39:57.603Z,61.02
2022-08-07T19:42:49.703Z,60.97
2022-08-07T19:46:05.820Z,61.42
2022-08-07T19:48:56.034Z,62.18
2022-08-07T19:58:13.976Z,63.32
2022-08-07T20:01:09.677Z,63.93
2022-08-07T20:04:31.623Z,64.09
2022-08-07T20:07:14.226Z,64.78
2022-08-07T20:10:35.919Z,65.38
2022-08-07T20:13:38.094Z,65.65
2022-08-07T20:16:36.459Z,65.95
2022-08-07T20:19:28.885Z,66.46
2022-08-07T20:22:40.091Z,67.54
2022-08-07T20:25:32.007Z,67.82
2022-08-07T20:28:30.913Z,68.32
2022-08-07T20:31:21.151Z,68.93
2022-08-07T20:34:09.932Z,69.44
2022-08-07T20:36:58.678Z,70.09
2022-08-07T20:40:02.597Z,70.85
2022-08-07T20:42:56.689Z,71.63
2022-08-07T20:46:29.775Z,72.77
2022-08-07T20:49:58.915Z,72.38
2022-08-07T20:52:17.240Z,72.73
2022-08-07T20:55:08.698Z,72.73
2022-08-07T20:58:03.491Z,72.74
2022-08-07T21:01:03.467Z,72.76
2022-08-07T21:04:13.367Z,72.65
2022-08-07T21:07:04.473Z,73.45
2022-08-07T21:10:03.475Z,73.43
2022-08-07T21:12:54.921Z,73.47
2022-08-07T21:15:47.721Z,73.63
2022-08-07T21:18:50.422Z,74.62
2022-08-07T21:21:56.709Z,74.83
2022-08-07T21:25:11.727Z,75.36
2022-08-07T21:28:47.722Z,76.92
2022-08-07T21:32:03.700Z,78.04
2022-08-07T21:34:59.257Z,79.56
2022-08-07T21:38:00.321Z,81.00
2022-08-07T21:41:26.362Z,81.80
2022-08-07T21:44:28.421Z,82.75
2022-08-07T21:47:26.136Z,83.65
2022-08-07T21:50:24.518Z,85.21
2022-08-07T21:53:32.471Z,86.37
2022-08-07T21:56:36.407Z,87.47
2022-08-07T22:00:06.141Z,88.82
2022-08-07T22:03:09.836Z,89.93
2022-08-07T22:06:30.425Z,90.39
2022-08-07T22:09:28.189Z,91.02
2022-08-07T22:12:38.455Z,91.04
2022-08-07T22:16:39.067Z,91.60
2022-08-07T22:19:08.471Z,91.68
2022-08-07T22:22:21.086Z,91.45
2022-08-07T22:25:42.841Z,90.89
2022-08-07T22:29:08.922Z,91.24
2022-08-07T22:32:08.921Z,90.91
2022-08-07T22:35:05.009Z,91.58
2022-08-07T22:38:24.187Z,92.22
2022-08-07T22:41:22.317Z,92.70
2022-08-07T22:44:34.476Z,93.34
2022-08-07T22:47:35.516Z,94.07
2022-08-07T22:51:01.692Z,95.11
2022-08-07T22:54:12.173Z,95.90
2022-08-07T22:57:26.195Z,95.79
2022-08-07T23:00:18.984Z,95.78
2022-08-07T23:03:58.592Z,96.21
2022-08-07T23:07:02.766Z,96.45
2022-08-07T23:10:38.374Z,96.56
2022-08-07T23:14:16.018Z,97.93
2022-08-07T23:17:03.970Z,98.67
2022-08-07T23:20:40.403Z,100.00
2022-08-07T23:24:06.356Z,100.00
2022-08-07T23:27:34.564Z,100.00
2022-08-07T23:30:37.498Z,100.00
2022-08-07T23:34:36.244Z,100.00
2022-08-07T23:38:00.896Z,100.00
2022-08-07T23:40:56.614Z,100.00
2022-08-07T23:44:41.434Z,100.00
2022-08-07T23:47:47.811Z,100.00
2022-08-07T23:50:57.734Z,100.00
2022-08-07T23:54:44.096Z,100.00
2022-08-07T23:57:41.663Z,100.00
